^^
Station Historical Data
 
Daily Summary for February 24, 2018 Units:  Both    English   Metric
« Previous Day
Next Day »
Daily Weekly Monthly Yearly Custom
  Current: High: Low: Average:
Temperature: 74.1 °F /  23.4 °C TemperatureF °F /  -17.8 °C 66.4 °F /  19.1 °C 66.6 °F /  19.2 °C
Dew Point: 43.9 °F /  6.6 °C DewpointF °F /  -17.8 °C 43.0 °F /  6.1 °C 43.2 °F /  6.2 °C
Humidity: 34% Humidity% 33% 40%
Wind Speed: 6.0mph /  9.7km/h WindSpeedMPHmph /  0km/h - 2.4mph /  3.9km/h
Wind Gust: 9.0mph /  14.5km/h WindSpeedGustMPHmph /  0km/h - -
WindSouth - - South
Pressure: 29.59 in /  1001.9 hPa PressureIn in /  0 hPa 29.58 in /  1001.6 hPa -
Precipitation: 0.00 in /  0 mm      
Historical Graphs
 
 
Tabular Data for February 24, 2018
Time Temperature Dew Point Pressure Wind Wind Speed Wind Gust Humidity Rainfall Rate (Hourly) solar Conditions
TemperatureF °F /  -17.8 °C DewpointF °F /  -17.8 °C PressureInin /  0hPa Calm     Humidity% HourlyPrecipInin /  0mm SoftwareType W/m2 Conditions
08:05 66.4 °F /  19.1 °C 43.9 °F /  6.6 °C 29.58in /  1001.6hPa SSE 0.9mph /  1.4km/h 1.0mph /  1.6km/h 44% 0.00in /  0mm meteobridge W/m2
08:11 66.4 °F /  19.1 °C 43.9 °F /  6.6 °C 29.59in /  1001.9hPa East 0.9mph /  1.4km/h 12.0mph /  19.3km/h 44% 0.00in /  0mm meteobridge W/m2
08:17 66.7 °F /  19.3 °C 44.1 °F /  6.7 °C 29.59in /  1001.9hPa SSE 4.0mph /  6.4km/h 4.0mph /  6.4km/h 44% 0.00in /  0mm meteobridge W/m2
08:23 67.1 °F /  19.5 °C 45.0 °F /  7.2 °C 29.59in /  1001.9hPa Calm   6.0mph /  9.7km/h 45% 0.00in /  0mm meteobridge W/m2
08:29 67.6 °F /  19.8 °C 45.0 °F /  7.2 °C 29.59in /  1001.9hPa SE 6.9mph /  11.1km/h 7.0mph /  11.3km/h 44% 0.00in /  0mm meteobridge W/m2
08:35 67.6 °F /  19.8 °C 45.5 °F /  7.5 °C 29.59in /  1001.9hPa SSE 6.0mph /  9.7km/h 10.0mph /  16.1km/h 45% 0.00in /  0mm meteobridge W/m2
08:41 67.6 °F /  19.8 °C 45.5 °F /  7.5 °C 29.59in /  1001.9hPa WSW 4.9mph /  7.9km/h 7.0mph /  11.3km/h 45% 0.00in /  0mm meteobridge W/m2
08:47 67.6 °F /  19.8 °C 45.5 °F /  7.5 °C 29.59in /  1001.9hPa Calm   5.0mph /  8km/h 45% 0.00in /  0mm meteobridge W/m2
08:54 67.8 °F /  19.9 °C 45.1 °F /  7.3 °C 29.59in /  1001.9hPa Calm   5.0mph /  8km/h 44% 0.00in /  0mm meteobridge W/m2
09:00 68.7 °F /  20.4 °C 46.6 °F /  8.1 °C 29.60in /  1002.3hPa WSW 2.9mph /  4.7km/h 5.0mph /  8km/h 45% 0.00in /  0mm meteobridge W/m2
09:06 68.5 °F /  20.3 °C 45.7 °F /  7.6 °C 29.59in /  1001.9hPa WNW 2.9mph /  4.7km/h 18.0mph /  29km/h 44% 0.00in /  0mm meteobridge W/m2
09:12 68.7 °F /  20.4 °C 46.6 °F /  8.1 °C 29.59in /  1001.9hPa South 4.9mph /  7.9km/h 9.0mph /  14.5km/h 45% 0.00in /  0mm meteobridge W/m2
09:18 69.1 °F /  20.6 °C 46.2 °F /  7.9 °C 29.60in /  1002.3hPa Calm   4.0mph /  6.4km/h 44% 0.00in /  0mm meteobridge W/m2
09:24 69.3 °F /  20.7 °C 46.4 °F /  8 °C 29.60in /  1002.3hPa Calm   6.0mph /  9.7km/h 44% 0.00in /  0mm meteobridge W/m2
09:43 70.9 °F /  21.6 °C 46.6 °F /  8.1 °C 29.60in /  1002.3hPa NNW 2.9mph /  4.7km/h 10.0mph /  16.1km/h 42% 0.00in /  0mm meteobridge W/m2
09:49 71.8 °F /  22.1 °C 46.8 °F /  8.2 °C 29.60in /  1002.3hPa NW 4.9mph /  7.9km/h 7.0mph /  11.3km/h 41% 0.00in /  0mm meteobridge W/m2
09:55 72.1 °F /  22.3 °C 46.4 °F /  8 °C 29.60in /  1002.3hPa Calm   7.0mph /  11.3km/h 40% 0.00in /  0mm meteobridge W/m2
10:01 72.7 °F /  22.6 °C 45.0 °F /  7.2 °C 29.60in /  1002.3hPa Calm   4.0mph /  6.4km/h 37% 0.00in /  0mm meteobridge W/m2
10:07 73.2 °F /  22.9 °C 43.9 °F /  6.6 °C 29.60in /  1002.3hPa SE 2.9mph /  4.7km/h 5.0mph /  8km/h 35% 0.00in /  0mm meteobridge W/m2
10:14 73.9 °F /  23.3 °C 43.0 °F /  6.1 °C 29.60in /  1002.3hPa NNE 4.0mph /  6.4km/h 11.0mph /  17.7km/h 33% 0.00in /  0mm meteobridge W/m2
10:20 74.7 °F /  23.7 °C 43.7 °F /  6.5 °C 29.60in /  1002.3hPa SE 0.9mph /  1.4km/h 5.0mph /  8km/h 33% 0.00in /  0mm meteobridge W/m2
10:26 74.1 °F /  23.4 °C 43.9 °F /  6.6 °C 29.59in /  1001.9hPa South 6.0mph /  9.7km/h 9.0mph /  14.5km/h 34% 0.00in /  0mm meteobridge W/m2
Regenstein, Windhoek, Namibia
Compliments of Weather Underground - 2 mb